createdAt,value
2023-04-05T00:00:55.063Z,100.00
2023-04-05T00:03:24.400Z,100.00
2023-04-05T00:05:54.648Z,100.00
2023-04-05T00:08:26.671Z,100.00
2023-04-05T00:10:54.731Z,100.00
2023-04-05T00:13:22.892Z,100.00
2023-04-05T00:15:51.103Z,100.00
2023-04-05T00:18:23.723Z,100.00
2023-04-05T00:20:53.337Z,100.00
2023-04-05T00:23:22.807Z,100.00
2023-04-05T00:25:50.504Z,100.00
2023-04-05T00:28:18.226Z,100.00
2023-04-05T00:30:46.437Z,100.00
2023-04-05T00:33:14.663Z,100.00
2023-04-05T00:35:42.328Z,100.00
2023-04-05T00:38:11.414Z,100.00
2023-04-05T00:40:39.263Z,100.00
2023-04-05T00:43:07.369Z,100.00
2023-04-05T00:45:35.047Z,100.00
2023-04-05T00:48:02.719Z,100.00
2023-04-05T00:50:31.108Z,100.00
2023-04-05T00:52:59.003Z,100.00
2023-04-05T00:55:28.324Z,100.00
2023-04-05T00:57:56.789Z,100.00
2023-04-05T01:00:24.556Z,100.00
2023-04-05T01:02:57.701Z,100.00
2023-04-05T01:05:38.175Z,100.00
2023-04-05T01:08:17.501Z,100.00
2023-04-05T01:10:52.425Z,100.00
2023-04-05T01:13:20.142Z,100.00
2023-04-05T01:15:48.249Z,100.00
2023-04-05T01:18:15.916Z,100.00
2023-04-05T01:20:53.720Z,100.00
2023-04-05T01:23:39.001Z,100.00
2023-04-05T01:26:43.475Z,100.00
2023-04-05T01:29:39.646Z,100.00
2023-04-05T01:32:16.137Z,100.00
2023-04-05T01:34:51.415Z,100.00
2023-04-05T01:37:22.247Z,100.00
2023-04-05T01:39:51.150Z,100.00
2023-04-05T01:42:25.061Z,100.00
2023-04-05T01:44:55.209Z,100.00
2023-04-05T01:47:22.893Z,100.00
2023-04-05T01:49:50.931Z,100.00
2023-04-05T01:52:18.538Z,100.00
2023-04-05T01:54:46.254Z,100.00
2023-04-05T01:57:13.893Z,100.00
2023-04-05T01:59:41.521Z,100.00
2023-04-05T02:02:10.650Z,100.00
2023-04-05T02:04:38.717Z,100.00
2023-04-05T02:07:06.488Z,100.00
2023-04-05T02:09:34.109Z,100.00
2023-04-05T02:12:02.011Z,100.00
2023-04-05T02:14:30.429Z,100.00
2023-04-05T02:16:58.453Z,100.00
2023-04-05T02:19:29.826Z,100.00
2023-04-05T02:21:57.499Z,100.00
2023-04-05T02:24:25.246Z,100.00
2023-04-05T02:26:52.847Z,100.00
2023-04-05T02:29:20.439Z,100.00
2023-04-05T02:31:49.906Z,100.00
2023-04-05T02:34:17.628Z,100.00
2023-04-05T02:36:47.260Z,100.00
2023-04-05T02:39:14.861Z,100.00
2023-04-05T02:41:42.613Z,100.00
2023-04-05T02:44:10.251Z,100.00
2023-04-05T02:46:37.848Z,100.00
2023-04-05T02:49:05.629Z,100.00
2023-04-05T02:51:34.361Z,100.00
2023-04-05T02:54:04.699Z,100.00
2023-04-05T02:56:32.375Z,100.00
2023-04-05T02:59:00.009Z,100.00
2023-04-05T03:01:29.187Z,100.00
2023-04-05T03:03:56.932Z,100.00
2023-04-05T03:06:24.561Z,100.00
2023-04-05T03:08:52.405Z,100.00
2023-04-05T03:11:21.321Z,100.00
2023-04-05T03:13:48.930Z,100.00
2023-04-05T03:16:16.689Z,100.00
2023-04-05T03:18:44.375Z,100.00
2023-04-05T03:21:12.534Z,100.00
2023-04-05T03:23:40.198Z,100.00
2023-04-05T03:26:07.841Z,100.00
2023-04-05T03:28:36.795Z,100.00
2023-04-05T03:31:04.424Z,100.00
2023-04-05T03:33:32.117Z,100.00
2023-04-05T03:36:01.412Z,100.00
2023-04-05T03:38:29.329Z,100.00
2023-04-05T03:40:56.883Z,100.00
2023-04-05T03:43:24.555Z,100.00
2023-04-05T03:45:53.731Z,100.00
2023-04-05T03:48:21.722Z,100.00
2023-04-05T03:50:49.460Z,100.00
2023-04-05T03:53:18.956Z,100.00
2023-04-05T03:55:49.366Z,100.00
2023-04-05T03:58:17.644Z,100.00
2023-04-05T04:00:45.793Z,100.00
2023-04-05T04:03:15.157Z,100.00
2023-04-05T04:05:43.266Z,100.00
2023-04-05T04:08:11.381Z,100.00
2023-04-05T04:10:39.018Z,100.00
2023-04-05T04:13:07.022Z,100.00
2023-04-05T04:15:34.579Z,100.00
2023-04-05T04:18:02.235Z,100.00
2023-04-05T04:20:31.651Z,100.00
2023-04-05T04:22:59.901Z,100.00
2023-04-05T04:25:30.700Z,100.00
2023-04-05T04:27:58.861Z,100.00
2023-04-05T04:30:26.875Z,100.00
2023-04-05T04:32:55.264Z,100.00
2023-04-05T04:35:25.829Z,100.00
2023-04-05T04:37:57.891Z,100.00
2023-04-05T04:40:29.268Z,100.00
2023-04-05T04:42:58.654Z,100.00
2023-04-05T04:45:26.428Z,100.00
2023-04-05T04:47:54.791Z,100.00
2023-04-05T04:50:22.726Z,100.00
2023-04-05T04:52:50.382Z,100.00
2023-04-05T04:55:25.522Z,100.00
2023-04-05T04:57:53.703Z,100.00
2023-04-05T05:00:22.128Z,100.00
2023-04-05T05:02:49.876Z,100.00
2023-04-05T05:05:17.581Z,100.00
2023-04-05T05:07:46.537Z,100.00
2023-04-05T05:10:16.178Z,100.00
2023-04-05T05:12:45.299Z,100.00
2023-04-05T05:15:13.531Z,100.00
2023-04-05T05:17:41.605Z,100.00
2023-04-05T05:20:11.224Z,100.00
2023-04-05T05:22:40.325Z,100.00
2023-04-05T05:25:09.949Z,100.00
2023-04-05T05:27:37.548Z,100.00
2023-04-05T05:30:07.800Z,100.00
2023-04-05T05:32:35.609Z,100.00
2023-04-05T05:35:03.240Z,100.00
2023-04-05T05:37:31.808Z,100.00
2023-04-05T05:40:00.164Z,100.00
2023-04-05T05:42:28.286Z,100.00
2023-04-05T05:44:55.843Z,100.00
2023-04-05T05:47:24.943Z,100.00
2023-04-05T05:49:52.951Z,100.00
2023-04-05T05:52:20.631Z,100.00
2023-04-05T05:54:48.280Z,100.00
2023-04-05T05:57:16.080Z,100.00
2023-04-05T05:59:43.912Z,100.00
2023-04-05T06:02:11.982Z,100.00
2023-04-05T06:04:41.825Z,100.00
2023-04-05T06:07:09.672Z,100.00
2023-04-05T06:09:37.486Z,100.00
2023-04-05T06:12:05.333Z,100.00
2023-04-05T06:14:32.987Z,100.00
2023-04-05T06:17:00.696Z,100.00
2023-04-05T06:19:29.406Z,100.00
2023-04-05T06:22:00.673Z,100.00
2023-04-05T06:24:31.887Z,100.00
2023-04-05T06:26:59.520Z,100.00
2023-04-05T06:29:27.201Z,100.00
2023-04-05T06:31:56.343Z,100.00
2023-04-05T06:34:24.100Z,100.00
2023-04-05T06:36:51.745Z,100.00
2023-04-05T06:39:21.243Z,100.00
2023-04-05T06:41:48.961Z,100.00
2023-04-05T06:44:16.591Z,100.00
2023-04-05T06:46:44.241Z,100.00
2023-04-05T06:49:12.141Z,100.00
2023-04-05T06:51:41.326Z,100.00
2023-04-05T06:54:08.994Z,100.00
2023-04-05T06:56:38.962Z,100.00
2023-04-05T06:59:06.623Z,100.00
2023-04-05T07:01:34.274Z,100.00
2023-04-05T07:04:01.970Z,100.00
2023-04-05T07:06:29.761Z,100.00
2023-04-05T07:08:57.340Z,100.00
2023-04-05T07:11:24.959Z,100.00
2023-04-05T07:13:54.044Z,100.00
2023-04-05T07:16:23.624Z,100.00
2023-04-05T07:18:51.855Z,100.00
2023-04-05T07:21:19.460Z,100.00
2023-04-05T07:23:47.073Z,100.00
2023-04-05T07:26:14.649Z,100.00
2023-04-05T07:28:42.216Z,100.00
2023-04-05T07:31:11.600Z,100.00
2023-04-05T07:33:39.262Z,100.00
2023-04-05T07:36:07.628Z,100.00
2023-04-05T07:38:35.204Z,100.00
2023-04-05T07:41:02.977Z,100.00
2023-04-05T07:43:30.554Z,100.00
2023-04-05T07:46:03.509Z,100.00
2023-04-05T07:48:32.746Z,100.00
2023-04-05T07:51:05.166Z,100.00
2023-04-05T07:53:32.753Z,100.00
2023-04-05T07:56:01.001Z,100.00
2023-04-05T07:58:30.514Z,100.00
2023-04-05T08:01:00.913Z,100.00
2023-04-05T08:03:28.676Z,100.00
2023-04-05T08:05:57.752Z,100.00
2023-04-05T08:08:25.969Z,100.00
2023-04-05T08:10:53.614Z,100.00
2023-04-05T08:13:21.273Z,100.00
2023-04-05T08:15:48.994Z,100.00
2023-04-05T08:18:16.593Z,100.00
2023-04-05T08:20:44.268Z,100.00
2023-04-05T08:23:13.285Z,100.00
2023-04-05T08:25:42.644Z,100.00
2023-04-05T08:28:10.444Z,100.00
2023-04-05T08:30:38.969Z,100.00
2023-04-05T08:33:07.296Z,100.00
2023-04-05T08:35:38.022Z,100.00
2023-04-05T08:38:05.775Z,100.00
2023-04-05T08:40:41.201Z,100.00
2023-04-05T08:43:12.265Z,100.00
2023-04-05T08:45:48.418Z,100.00
2023-04-05T08:48:16.469Z,100.00
2023-04-05T08:50:44.340Z,100.00
2023-04-05T08:53:13.276Z,100.00
2023-04-05T08:55:42.570Z,100.00
2023-04-05T08:58:14.627Z,100.00
2023-04-05T09:00:42.946Z,100.00
2023-04-05T09:03:16.332Z,96.58
2023-04-05T09:05:47.806Z,97.85
2023-04-05T09:08:15.589Z,95.06
2023-04-05T09:10:44.931Z,98.69
2023-04-05T09:13:12.525Z,98.92
2023-04-05T09:15:41.582Z,98.29
2023-04-05T09:18:19.073Z,89.74
2023-04-05T09:20:51.290Z,90.72
2023-04-05T09:23:18.981Z,92.85
2023-04-05T09:25:52.519Z,88.33
2023-04-05T09:28:20.130Z,88.35
2023-04-05T09:30:48.175Z,81.21
2023-04-05T09:33:19.695Z,81.57
2023-04-05T09:35:52.242Z,81.36
2023-04-05T09:38:20.010Z,80.67
2023-04-05T09:40:51.314Z,86.08
2023-04-05T09:43:37.557Z,84.02
2023-04-05T09:46:05.251Z,80.47
2023-04-05T09:48:47.308Z,75.60
2023-04-05T09:51:15.692Z,79.81
2023-04-05T09:53:58.523Z,80.88
2023-04-05T09:56:29.111Z,79.44
2023-04-05T09:59:01.235Z,82.57
2023-04-05T10:01:29.827Z,88.39
2023-04-05T10:03:59.131Z,87.08
2023-04-05T10:06:36.373Z,78.91
2023-04-05T10:09:04.980Z,85.03
2023-04-05T10:11:35.549Z,87.37
2023-04-05T10:14:04.885Z,85.14
2023-04-05T10:16:37.584Z,82.26
2023-04-05T10:19:06.990Z,78.71
2023-04-05T10:21:37.538Z,77.04
2023-04-05T10:24:14.312Z,74.47
2023-04-05T10:26:49.787Z,76.64
2023-04-05T10:29:26.122Z,75.51
2023-04-05T10:32:05.696Z,74.35
2023-04-05T10:34:44.144Z,69.01
2023-04-05T10:37:19.442Z,68.66
2023-04-05T10:39:48.342Z,67.35
2023-04-05T10:42:22.201Z,63.24
2023-04-05T10:44:53.118Z,64.34
2023-04-05T10:47:24.675Z,59.76
2023-04-05T10:49:54.810Z,61.29
2023-04-05T10:52:24.237Z,59.42
2023-04-05T10:54:57.238Z,58.82
2023-04-05T10:57:27.224Z,59.51
2023-04-05T10:59:55.500Z,61.74
2023-04-05T11:02:23.839Z,61.57
2023-04-05T11:04:56.239Z,61.61
2023-04-05T11:07:24.280Z,60.61
2023-04-05T11:09:54.807Z,59.76
2023-04-05T11:12:58.932Z,61.06
2023-04-05T11:15:32.946Z,61.97
2023-04-05T11:18:09.401Z,60.15
2023-04-05T11:20:51.749Z,62.54
2023-04-05T11:23:20.761Z,59.06
2023-04-05T11:25:53.339Z,60.16
2023-04-05T11:28:25.578Z,58.01
2023-04-05T11:30:57.161Z,57.80
2023-04-05T11:33:37.755Z,55.34
2023-04-05T11:36:06.464Z,58.28
2023-04-05T11:38:34.430Z,55.66
2023-04-05T11:41:13.586Z,55.23
2023-04-05T11:43:42.498Z,55.52
2023-04-05T11:46:12.390Z,55.01
2023-04-05T11:48:42.017Z,57.42
2023-04-05T11:51:11.542Z,54.34
2023-04-05T11:53:39.828Z,55.07
2023-04-05T11:56:10.223Z,54.47
2023-04-05T11:58:38.131Z,55.37
2023-04-05T12:01:07.519Z,52.04
2023-04-05T12:03:37.791Z,53.88
2023-04-05T12:06:07.718Z,53.84
2023-04-05T12:08:40.592Z,53.29
2023-04-05T12:11:09.852Z,53.91
2023-04-05T12:13:38.629Z,55.79
2023-04-05T12:16:07.991Z,52.07
2023-04-05T12:18:38.627Z,51.42
2023-04-05T12:21:08.907Z,50.47
2023-04-05T12:23:38.156Z,46.44
2023-04-05T12:26:08.727Z,47.45
2023-04-05T12:28:51.740Z,46.81
2023-04-05T12:31:19.731Z,50.85
2023-04-05T12:33:49.125Z,50.53
2023-04-05T12:36:16.891Z,49.87
2023-04-05T12:38:44.481Z,49.62
2023-04-05T12:41:12.172Z,54.12
2023-04-05T12:43:40.831Z,52.18
2023-04-05T12:46:11.643Z,51.97
2023-04-05T12:48:39.747Z,53.87
2023-04-05T12:51:17.115Z,51.70
2023-04-05T12:53:48.492Z,52.24
2023-04-05T12:56:16.985Z,52.17
2023-04-05T12:58:45.131Z,54.54
2023-04-05T13:01:12.925Z,53.54
2023-04-05T13:03:40.730Z,52.34
2023-04-05T13:06:10.507Z,53.47
2023-04-05T13:08:38.098Z,52.03
2023-04-05T13:11:06.095Z,50.30
2023-04-05T13:13:34.812Z,51.76
2023-04-05T13:16:02.499Z,49.27
2023-04-05T13:18:30.321Z,48.82
2023-04-05T13:20:57.949Z,48.44
2023-04-05T13:23:26.968Z,48.75
2023-04-05T13:25:54.537Z,48.28
2023-04-05T13:28:22.139Z,50.59
2023-04-05T13:30:50.406Z,51.17
2023-04-05T13:33:19.454Z,51.05
2023-04-05T13:35:47.349Z,52.10
2023-04-05T13:38:15.037Z,51.12
2023-04-05T13:40:44.341Z,52.69
2023-04-05T13:43:12.284Z,53.16
2023-04-05T13:45:40.726Z,54.31
2023-04-05T13:48:08.606Z,54.55
2023-04-05T13:50:36.393Z,53.37
2023-04-05T13:53:03.978Z,54.84
2023-04-05T13:55:31.539Z,53.07
2023-04-05T13:58:00.814Z,55.00
2023-04-05T14:00:28.521Z,54.77
2023-04-05T14:02:56.562Z,53.27
2023-04-05T14:05:24.300Z,51.58
2023-04-05T14:07:51.862Z,52.06
2023-04-05T14:10:21.450Z,51.04
2023-04-05T14:12:49.127Z,50.10
2023-04-05T14:15:18.182Z,52.18
2023-04-05T14:17:45.934Z,50.64
2023-04-05T14:20:13.608Z,48.93
2023-04-05T14:22:41.274Z,49.04
2023-04-05T14:25:09.691Z,48.65
2023-04-05T14:27:41.958Z,50.21
2023-04-05T14:30:11.391Z,52.00
2023-04-05T14:32:40.710Z,52.67
2023-04-05T14:35:09.809Z,54.65
2023-04-05T14:37:37.977Z,53.93
2023-04-05T14:40:06.603Z,54.72
2023-04-05T14:42:47.722Z,53.66
2023-04-05T14:45:17.488Z,54.38
2023-04-05T14:47:46.612Z,54.99
2023-04-05T14:50:14.416Z,53.75
2023-04-05T14:52:42.111Z,52.40
2023-04-05T14:55:12.364Z,50.18
2023-04-05T14:57:40.096Z,53.97
2023-04-05T15:00:09.132Z,52.59
2023-04-05T15:02:37.821Z,53.82
2023-04-05T15:05:08.080Z,50.89
2023-04-05T15:07:36.061Z,51.91
2023-04-05T15:10:03.858Z,51.72
2023-04-05T15:12:32.455Z,52.04
2023-04-05T15:15:00.274Z,52.19
2023-04-05T15:17:28.063Z,53.55
2023-04-05T15:19:55.813Z,51.61
2023-04-05T15:22:25.427Z,52.23
2023-04-05T15:24:53.177Z,52.75
2023-04-05T15:27:20.956Z,54.85
2023-04-05T15:29:48.645Z,56.75
2023-04-05T15:32:17.083Z,57.08
2023-04-05T15:34:44.927Z,56.69
2023-04-05T15:37:12.876Z,57.09
2023-04-05T15:39:41.952Z,57.48
2023-04-05T15:42:09.729Z,58.03
2023-04-05T15:44:37.370Z,57.38
2023-04-05T15:47:05.435Z,58.14
2023-04-05T15:49:33.146Z,57.21
2023-04-05T15:52:01.144Z,56.98
2023-04-05T15:54:28.851Z,56.73
2023-04-05T15:56:58.080Z,56.93
2023-04-05T15:59:25.775Z,55.52
2023-04-05T16:01:53.686Z,56.45
2023-04-05T16:04:21.752Z,56.12
2023-04-05T16:06:49.506Z,56.06
2023-04-05T16:09:17.218Z,55.88
2023-04-05T16:11:45.470Z,55.84
2023-04-05T16:14:14.719Z,56.01
2023-04-05T16:16:53.132Z,56.27
2023-04-05T16:19:21.822Z,56.99
2023-04-05T16:21:49.898Z,57.03
2023-04-05T16:24:17.706Z,57.29
2023-04-05T16:26:45.450Z,57.79
2023-04-05T16:29:14.474Z,58.85
2023-04-05T16:31:47.056Z,58.75
2023-04-05T16:34:14.927Z,58.74
2023-04-05T16:36:42.722Z,59.23
2023-04-05T16:39:10.397Z,59.31
2023-04-05T16:41:38.088Z,59.60
2023-04-05T16:44:05.781Z,59.24
2023-04-05T16:46:34.802Z,59.21
2023-04-05T16:49:03.104Z,58.77
2023-04-05T16:51:31.290Z,58.54
2023-04-05T16:53:58.982Z,58.48
2023-04-05T16:56:26.861Z,59.41
2023-04-05T16:58:55.166Z,59.87
2023-04-05T17:01:23.039Z,59.91
2023-04-05T17:03:52.228Z,60.80
2023-04-05T17:06:19.945Z,61.48
2023-04-05T17:08:47.615Z,62.33
2023-04-05T17:11:15.393Z,62.36
2023-04-05T17:13:45.029Z,62.18
2023-04-05T17:16:13.556Z,62.44
2023-04-05T17:18:41.323Z,63.84
2023-04-05T17:21:12.229Z,63.97
2023-04-05T17:23:40.045Z,64.79
2023-04-05T17:26:07.934Z,65.68
2023-04-05T17:28:35.757Z,65.49
2023-04-05T17:31:04.092Z,66.23
2023-04-05T17:33:32.859Z,67.53
2023-04-05T17:36:01.941Z,68.34
2023-04-05T17:38:31.322Z,69.04
2023-04-05T17:40:59.464Z,69.35
2023-04-05T17:43:27.383Z,70.25
2023-04-05T17:45:55.418Z,69.86
2023-04-05T17:48:23.240Z,70.63
2023-04-05T17:50:51.019Z,70.81
2023-04-05T17:53:18.860Z,71.56
2023-04-05T17:55:48.318Z,71.86
2023-04-05T17:58:16.105Z,71.36
2023-04-05T18:00:44.882Z,72.95
2023-04-05T18:03:13.410Z,72.79
2023-04-05T18:05:41.218Z,73.01
2023-04-05T18:08:08.945Z,73.13
2023-04-05T18:10:36.705Z,73.29
2023-04-05T18:13:05.978Z,72.57
2023-04-05T18:15:33.689Z,74.94
2023-04-05T18:18:01.593Z,74.81
2023-04-05T18:20:29.342Z,75.06
2023-04-05T18:22:57.153Z,76.51
2023-04-05T18:25:24.988Z,77.79
2023-04-05T18:27:52.653Z,76.87
2023-04-05T18:30:21.772Z,76.90
2023-04-05T18:32:49.449Z,77.14
2023-04-05T18:35:17.585Z,78.47
2023-04-05T18:37:45.256Z,79.19
2023-04-05T18:40:13.249Z,81.75
2023-04-05T18:42:40.871Z,84.51
2023-04-05T18:45:09.410Z,85.50
2023-04-05T18:47:38.544Z,89.42
2023-04-05T18:50:09.893Z,91.08
2023-04-05T18:52:37.769Z,91.88
2023-04-05T18:55:06.245Z,92.96
2023-04-05T18:57:33.893Z,93.52
2023-04-05T19:00:01.930Z,93.90
2023-04-05T19:02:30.926Z,95.32
2023-04-05T19:05:00.117Z,95.62
2023-04-05T19:07:27.847Z,97.33
2023-04-05T19:09:55.598Z,98.30
2023-04-05T19:12:23.627Z,98.57
2023-04-05T19:14:51.414Z,98.99
2023-04-05T19:17:19.233Z,100.00
2023-04-05T19:19:48.577Z,100.00
2023-04-05T19:22:17.629Z,100.00
2023-04-05T19:24:45.363Z,100.00
2023-04-05T19:27:13.044Z,100.00
2023-04-05T19:29:40.750Z,100.00
2023-04-05T19:32:09.018Z,100.00
2023-04-05T19:34:38.912Z,100.00
2023-04-05T19:37:07.238Z,100.00
2023-04-05T19:39:37.552Z,100.00
2023-04-05T19:42:06.113Z,100.00
2023-04-05T19:44:44.170Z,100.00
2023-04-05T19:47:11.907Z,100.00
2023-04-05T19:49:42.914Z,100.00
2023-04-05T19:52:13.930Z,100.00
2023-04-05T19:54:44.077Z,100.00
2023-04-05T19:57:17.734Z,100.00
2023-04-05T19:59:46.017Z,100.00
2023-04-05T20:02:30.338Z,100.00
2023-04-05T20:04:58.048Z,100.00
2023-04-05T20:07:26.493Z,100.00
2023-04-05T20:09:56.132Z,100.00
2023-04-05T20:12:23.813Z,100.00
2023-04-05T20:14:52.078Z,100.00
2023-04-05T20:17:19.934Z,100.00
2023-04-05T20:19:57.237Z,100.00
2023-04-05T20:22:25.472Z,100.00
2023-04-05T20:24:53.169Z,100.00
2023-04-05T20:27:22.172Z,100.00
2023-04-05T20:29:50.320Z,100.00
2023-04-05T20:32:18.308Z,100.00
2023-04-05T20:34:46.102Z,100.00
2023-04-05T20:37:13.813Z,100.00
2023-04-05T20:39:41.529Z,100.00
2023-04-05T20:42:11.187Z,100.00
2023-04-05T20:44:41.062Z,100.00
2023-04-05T20:47:08.788Z,100.00
2023-04-05T20:49:36.638Z,100.00
2023-04-05T20:52:07.520Z,100.00
2023-04-05T20:54:35.469Z,100.00
2023-04-05T20:57:03.353Z,100.00
2023-04-05T20:59:31.445Z,100.00
2023-04-05T21:02:00.633Z,100.00
2023-04-05T21:04:30.134Z,100.00
2023-04-05T21:06:58.129Z,100.00
2023-04-05T21:09:25.964Z,100.00
2023-04-05T21:11:53.639Z,100.00
2023-04-05T21:14:21.318Z,100.00
2023-04-05T21:16:49.122Z,100.00
2023-04-05T21:19:18.157Z,100.00
2023-04-05T21:21:45.957Z,100.00
2023-04-05T21:24:13.715Z,100.00
2023-04-05T21:26:41.556Z,100.00
2023-04-05T21:29:09.384Z,100.00
2023-04-05T21:31:37.355Z,100.00
2023-04-05T21:34:05.020Z,100.00
2023-04-05T21:36:34.046Z,100.00
2023-04-05T21:39:01.783Z,100.00
2023-04-05T21:41:29.778Z,100.00
2023-04-05T21:43:57.488Z,100.00
2023-04-05T21:46:25.174Z,100.00
2023-04-05T21:48:52.852Z,100.00
2023-04-05T21:51:20.978Z,100.00
2023-04-05T21:53:49.999Z,100.00
2023-04-05T21:56:18.929Z,100.00
2023-04-05T21:58:46.572Z,100.00
2023-04-05T22:01:14.632Z,100.00
2023-04-05T22:03:42.406Z,100.00
2023-04-05T22:06:10.102Z,100.00
2023-04-05T22:08:38.131Z,100.00
2023-04-05T22:11:07.419Z,100.00
2023-04-05T22:13:35.440Z,100.00
2023-04-05T22:16:03.193Z,100.00
2023-04-05T22:18:30.922Z,100.00
2023-04-05T22:20:58.619Z,100.00
2023-04-05T22:23:26.416Z,100.00
2023-04-05T22:25:54.119Z,100.00
2023-04-05T22:28:23.204Z,100.00
2023-04-05T22:30:50.934Z,100.00
2023-04-05T22:33:18.761Z,100.00
2023-04-05T22:35:46.495Z,100.00
2023-04-05T22:38:14.212Z,100.00
2023-04-05T22:40:42.076Z,100.00
2023-04-05T22:43:09.736Z,100.00
2023-04-05T22:45:38.869Z,100.00
2023-04-05T22:48:07.254Z,100.00
2023-04-05T22:50:35.004Z,100.00
2023-04-05T22:53:02.645Z,100.00
2023-04-05T22:55:30.601Z,100.00
2023-04-05T22:57:58.252Z,100.00
2023-04-05T23:00:26.024Z,100.00
2023-04-05T23:02:55.319Z,100.00
2023-04-05T23:05:22.990Z,100.00
2023-04-05T23:07:50.710Z,100.00
2023-04-05T23:10:18.707Z,100.00
2023-04-05T23:12:47.682Z,100.00
2023-04-05T23:15:15.739Z,100.00
2023-04-05T23:17:43.522Z,100.00
2023-04-05T23:20:12.961Z,100.00
2023-04-05T23:22:40.637Z,100.00
2023-04-05T23:25:09.566Z,100.00
2023-04-05T23:27:37.203Z,100.00
2023-04-05T23:30:06.076Z,100.00
2023-04-05T23:32:33.779Z,100.00
2023-04-05T23:35:01.445Z,100.00
2023-04-05T23:37:30.463Z,100.00
2023-04-05T23:39:58.175Z,100.00
2023-04-05T23:42:25.952Z,100.00
2023-04-05T23:44:53.609Z,100.00
2023-04-05T23:47:21.352Z,100.00
2023-04-05T23:49:49.148Z,100.00
2023-04-05T23:52:17.226Z,100.00
2023-04-05T23:54:46.617Z,100.00
2023-04-05T23:57:14.348Z,100.00
2023-04-05T23:59:42.095Z,100.00
